createdAt,value
2019-03-13T00:00:39.105Z,94625
2019-03-13T00:01:41.278Z,94621.2
2019-03-13T00:02:43.418Z,94614.6
2019-03-13T00:03:45.612Z,94614
2019-03-13T00:04:48.042Z,94621
2019-03-13T00:05:50.197Z,94613.4
2019-03-13T00:06:52.634Z,94607.7
2019-03-13T00:07:54.790Z,94606.7
2019-03-13T00:08:57.019Z,94597.2
2019-03-13T00:09:59.448Z,94592.6
2019-03-13T00:11:01.880Z,94592.2
2019-03-13T00:12:04.022Z,94591.9
2019-03-13T00:13:06.151Z,94584
2019-03-13T00:14:08.351Z,94583.8
2019-03-13T00:15:10.487Z,94593.1
2019-03-13T00:16:12.368Z,94589.8
2019-03-13T00:17:14.529Z,94580.7
2019-03-13T00:18:16.998Z,94580.3
2019-03-13T00:19:19.427Z,94581
2019-03-13T00:20:21.592Z,94589.8
2019-03-13T00:21:24.050Z,94580.5
2019-03-13T00:22:26.222Z,94581.5
2019-03-13T00:23:28.392Z,94584.5
2019-03-13T00:24:30.813Z,94582.7
2019-03-13T00:25:33.255Z,94585.8
2019-03-13T00:26:35.406Z,94586.8
2019-03-13T00:27:37.847Z,94583.1
2019-03-13T00:28:40.083Z,94588.8
2019-03-13T00:29:42.234Z,94587.1
2019-03-13T00:30:44.390Z,94589.4
2019-03-13T00:31:46.810Z,94584.4
2019-03-13T00:32:48.970Z,94581.3
2019-03-13T00:33:50.850Z,94573.9
2019-03-13T00:34:53.019Z,94570
2019-03-13T00:35:55.173Z,94570.6
2019-03-13T00:36:57.339Z,94563.9
2019-03-13T00:37:59.243Z,94560.4
2019-03-13T00:39:01.678Z,94557.5
2019-03-13T00:40:04.105Z,94558.2
2019-03-13T00:41:06.264Z,94555
2019-03-13T00:42:08.698Z,94551.9
2019-03-13T00:43:10.956Z,94554.9
2019-03-13T00:44:13.144Z,94547.9
2019-03-13T00:45:15.577Z,94549.9
2019-03-13T00:46:18.010Z,94542.8
2019-03-13T00:47:20.440Z,94541.9
2019-03-13T00:48:22.586Z,94546.4
2019-03-13T00:49:25.018Z,94543.7
2019-03-13T00:50:27.459Z,94539.5
2019-03-13T00:51:29.888Z,94534.5
2019-03-13T00:52:32.040Z,94532.9
2019-03-13T00:53:34.474Z,94532.5
2019-03-13T00:54:36.906Z,94536
2019-03-13T00:55:39.068Z,94528.1
2019-03-13T00:56:41.238Z,94532.2
2019-03-13T00:57:43.663Z,94531.4
2019-03-13T00:58:45.818Z,94533.7
2019-03-13T00:59:48.236Z,94543.4
2019-03-13T01:00:50.500Z,94538
2019-03-13T01:01:52.652Z,94541.2
2019-03-13T01:02:54.806Z,94543.6
2019-03-13T01:03:57.312Z,94549.5
2019-03-13T01:04:59.464Z,94542.2
2019-03-13T01:06:01.139Z,94550.8
2019-03-13T01:07:03.289Z,94549.6
2019-03-13T01:08:05.439Z,94554.5
2019-03-13T01:09:07.864Z,94553.5
2019-03-13T01:10:10.027Z,94555.3
2019-03-13T01:11:12.466Z,94549.8
2019-03-13T01:12:14.910Z,94549.1
2019-03-13T01:13:17.074Z,94565
2019-03-13T01:14:19.506Z,94560.8
2019-03-13T01:15:22.029Z,94561.3
2019-03-13T01:16:24.171Z,94561.6
2019-03-13T01:17:26.593Z,94570.8
2019-03-13T01:18:29.021Z,94577.2
2019-03-13T01:19:31.456Z,94577.5
2019-03-13T01:20:33.886Z,94578.9
2019-03-13T01:21:36.040Z,94575.1
2019-03-13T01:22:38.197Z,94579.8
2019-03-13T01:23:40.615Z,94593.2
2019-03-13T01:24:43.059Z,94582.7
2019-03-13T01:25:45.523Z,94567.4
2019-03-13T01:26:47.399Z,94582.1
2019-03-13T01:27:49.558Z,94579.8
2019-03-13T01:28:51.432Z,94583.7
2019-03-13T01:29:53.648Z,94577.2
2019-03-13T01:30:55.296Z,94560.4
2019-03-13T01:31:57.432Z,94605.8
2019-03-13T01:32:59.310Z,94577.5
2019-03-13T01:34:01.469Z,94586.8
2019-03-13T01:35:03.896Z,94572.6
2019-03-13T01:36:06.348Z,94589.3
2019-03-13T01:37:08.780Z,94577.1
2019-03-13T01:38:11.212Z,94589.2
2019-03-13T01:39:13.368Z,94580.6
2019-03-13T01:40:15.796Z,94587.3
2019-03-13T01:41:17.943Z,94595.1
2019-03-13T01:42:20.370Z,94585.5
2019-03-13T01:43:22.240Z,94577.9
2019-03-13T01:44:24.658Z,94593.7
2019-03-13T01:45:27.086Z,94590.4
2019-03-13T01:46:28.971Z,94586.6
2019-03-13T01:47:31.404Z,94589.5
2019-03-13T01:48:33.905Z,94611.8
2019-03-13T01:49:36.062Z,94600.8
2019-03-13T01:50:37.918Z,94600.4
2019-03-13T01:51:40.356Z,94600.7
2019-03-13T01:52:42.544Z,94609.3
2019-03-13T01:53:44.700Z,94613.6
2019-03-13T01:54:47.127Z,94623.3
2019-03-13T01:55:49.018Z,94623.5
2019-03-13T01:56:51.458Z,94626.5
2019-03-13T01:57:53.888Z,94624.3
2019-03-13T01:58:56.299Z,94629.2
2019-03-13T01:59:58.728Z,94635.9
2019-03-13T02:01:01.156Z,94627.2
2019-03-13T02:02:03.304Z,94667.2
2019-03-13T02:03:05.449Z,94628.7
2019-03-13T02:04:07.878Z,94622.4
2019-03-13T02:05:10.308Z,94628.4
2019-03-13T02:06:12.739Z,94638.3
2019-03-13T02:07:14.618Z,94638.1
2019-03-13T02:08:17.046Z,94651
2019-03-13T02:09:19.476Z,94639.5
2019-03-13T02:10:21.918Z,94658
2019-03-13T02:11:24.360Z,94644
2019-03-13T02:12:26.862Z,94660.5
2019-03-13T02:13:29.284Z,94652.5
2019-03-13T02:14:31.169Z,94653.8
2019-03-13T02:15:33.629Z,94654.3
2019-03-13T02:16:36.058Z,94661.5
2019-03-13T02:17:38.489Z,94665.7
2019-03-13T02:18:40.660Z,94660
2019-03-13T02:19:42.802Z,94668.9
2019-03-13T02:20:45.228Z,94662.2
2019-03-13T02:21:47.656Z,94648.4
2019-03-13T02:22:50.078Z,94663.5
2019-03-13T02:23:51.970Z,94651.4
2019-03-13T02:24:55.538Z,94655.3
2019-03-13T02:25:57.679Z,94677.9
2019-03-13T02:26:59.825Z,94702.3
2019-03-13T02:28:02.260Z,94678.4
2019-03-13T02:29:04.733Z,94678.7
2019-03-13T02:30:07.164Z,94677.6
2019-03-13T02:31:09.302Z,94671
2019-03-13T02:32:11.739Z,94684.1
2019-03-13T02:33:14.161Z,94683.6
2019-03-13T02:34:16.600Z,94688.7
2019-03-13T02:35:18.787Z,94690.8
2019-03-13T02:36:20.939Z,94687.6
2019-03-13T02:37:23.366Z,94695.1
2019-03-13T02:38:25.802Z,94700.9
2019-03-13T02:39:28.275Z,94699.6
2019-03-13T02:40:30.726Z,94705.9
2019-03-13T02:41:33.135Z,94710.8
2019-03-13T02:42:35.570Z,94716.7
2019-03-13T02:43:38.022Z,94722.2
2019-03-13T02:44:40.457Z,94731.4
2019-03-13T02:45:42.601Z,94729
2019-03-13T02:46:45.034Z,94739.1
2019-03-13T02:47:47.469Z,94749.3
2019-03-13T02:48:49.899Z,94753.2
2019-03-13T02:49:52.343Z,94748.7
2019-03-13T02:50:54.759Z,94752.9
2019-03-13T02:51:56.918Z,94760.9
2019-03-13T02:52:59.504Z,94770.4
2019-03-13T02:54:01.658Z,94770.6
2019-03-13T02:55:03.839Z,94771.8
2019-03-13T02:56:06.266Z,94773.3
2019-03-13T02:57:08.432Z,94770.8
2019-03-13T02:58:10.319Z,94775.3
2019-03-13T02:59:12.748Z,94786.5
2019-03-13T03:00:15.191Z,94784.7
2019-03-13T03:01:17.636Z,94789.2
2019-03-13T03:02:19.781Z,94786
2019-03-13T03:03:22.211Z,94779.8
2019-03-13T03:04:24.474Z,94784.3
2019-03-13T03:05:27.019Z,94782.1
2019-03-13T03:06:29.458Z,94793.4
2019-03-13T03:07:31.909Z,94815.6
2019-03-13T03:08:34.360Z,94816.8
2019-03-13T03:09:36.787Z,94827.3
2019-03-13T03:10:38.724Z,94821.9
2019-03-13T03:11:40.877Z,94822.4
2019-03-13T03:12:43.303Z,94828.2
2019-03-13T03:13:45.183Z,94841.7
2019-03-13T03:14:47.615Z,94844.3
2019-03-13T03:15:50.067Z,94849.2
2019-03-13T03:16:52.492Z,94856
2019-03-13T03:17:54.910Z,94854.9
2019-03-13T03:18:57.080Z,94857.9
2019-03-13T03:19:59.514Z,94856.4
2019-03-13T03:21:01.942Z,94860.4
2019-03-13T03:22:04.370Z,94863.1
2019-03-13T03:23:06.638Z,94863.1
2019-03-13T03:24:09.057Z,94870.2
2019-03-13T03:25:11.252Z,94882.4
2019-03-13T03:26:13.390Z,94878.7
2019-03-13T03:27:15.825Z,94882.9
2019-03-13T03:28:18.258Z,94885.8
2019-03-13T03:29:20.754Z,94882
2019-03-13T03:30:24.145Z,94887.1
2019-03-13T03:31:26.295Z,94891.7
2019-03-13T03:32:28.426Z,94893
2019-03-13T03:33:30.934Z,94899.3
2019-03-13T03:34:33.470Z,94890.8
2019-03-13T03:35:35.891Z,94890.3
2019-03-13T03:36:37.758Z,94895.2
2019-03-13T03:37:40.183Z,94897.3
2019-03-13T03:38:42.683Z,94913
2019-03-13T03:39:44.846Z,94904.7
2019-03-13T03:40:47.299Z,94898.4
2019-03-13T03:41:49.720Z,94910.9
2019-03-13T03:42:52.155Z,94912.1
2019-03-13T03:43:54.604Z,94921.9
2019-03-13T03:44:57.049Z,94927.7
2019-03-13T03:45:59.481Z,94926.2
2019-03-13T03:47:01.635Z,94923.7
2019-03-13T03:48:03.802Z,94938.9
2019-03-13T03:49:05.928Z,94940
2019-03-13T03:50:08.368Z,94942.6
2019-03-13T03:51:10.494Z,94946.5
2019-03-13T03:52:12.663Z,94948.1
2019-03-13T03:53:15.089Z,94955
2019-03-13T03:54:17.260Z,94943.2
2019-03-13T03:55:19.680Z,94946.2
2019-03-13T03:56:21.842Z,94955.4
2019-03-13T03:57:24.273Z,94952.9
2019-03-13T03:59:31.692Z,94940.7
2019-03-13T04:00:34.121Z,94942.3
2019-03-13T04:01:36.544Z,94928.1
2019-03-13T04:02:38.697Z,94939.9
2019-03-13T04:03:41.136Z,94948.1
2019-03-13T04:04:43.569Z,94943.3
2019-03-13T04:05:46.003Z,94942.9
2019-03-13T04:06:48.429Z,94953.2
2019-03-13T04:07:50.848Z,94951
2019-03-13T04:08:53.359Z,94964.2
2019-03-13T04:09:55.791Z,94960.4
2019-03-13T04:10:57.930Z,94970.5
2019-03-13T04:12:00.359Z,94972.4
2019-03-13T04:13:02.539Z,94979.4
2019-03-13T04:14:04.974Z,94974.4
2019-03-13T04:15:07.426Z,94976.5
2019-03-13T04:16:09.966Z,94974.3
2019-03-13T04:17:12.409Z,94974.7
2019-03-13T04:18:14.572Z,94972.1
2019-03-13T04:19:16.459Z,94962.9
2019-03-13T04:20:18.905Z,94960.1
2019-03-13T04:21:21.335Z,94963.3
2019-03-13T04:22:23.695Z,94963.7
2019-03-13T04:23:25.829Z,94966.3
2019-03-13T04:24:27.976Z,94965.8
2019-03-13T04:25:30.149Z,94958.3
2019-03-13T04:26:32.029Z,94964.8
2019-03-13T04:27:34.178Z,94960.7
2019-03-13T04:28:36.596Z,94966.9
2019-03-13T04:29:39.102Z,94973.2
2019-03-13T04:30:41.271Z,94973.3
2019-03-13T04:31:43.753Z,94979.8
2019-03-13T04:32:46.190Z,94989.3
2019-03-13T04:33:48.625Z,94991.5
2019-03-13T04:34:51.041Z,94991.3
2019-03-13T04:35:53.474Z,94990.4
2019-03-13T04:36:55.899Z,94994
2019-03-13T04:37:58.779Z,94994.7
2019-03-13T04:39:01.342Z,94989.1
2019-03-13T04:40:03.256Z,94982.9
2019-03-13T04:41:05.714Z,94989.9
2019-03-13T04:42:07.901Z,94991.8
2019-03-13T04:43:10.344Z,94985.4
2019-03-13T04:44:12.600Z,94990.4
2019-03-13T04:45:15.034Z,94994.4
2019-03-13T04:46:17.189Z,95004.2
2019-03-13T04:47:19.607Z,95003
2019-03-13T04:48:21.480Z,95004
2019-03-13T04:49:23.663Z,94996.1
2019-03-13T04:50:25.802Z,95001.7
2019-03-13T04:51:28.230Z,95003.5
2019-03-13T04:52:30.653Z,95013
2019-03-13T04:53:32.819Z,95023.9
2019-03-13T04:54:34.985Z,95016.1
2019-03-13T04:55:37.426Z,95020.7
2019-03-13T04:56:39.313Z,95029.8
2019-03-13T04:57:41.748Z,95025.5
2019-03-13T04:58:44.187Z,95037.2
2019-03-13T04:59:46.607Z,95036.5
2019-03-13T05:00:49.034Z,95043.4
2019-03-13T05:01:51.165Z,95047.4
2019-03-13T05:02:53.317Z,95050.8
2019-03-13T05:03:55.470Z,95041.8
2019-03-13T05:04:57.645Z,95045.8
2019-03-13T05:05:59.803Z,95044.9
2019-03-13T05:07:02.230Z,95048.4
2019-03-13T05:08:04.657Z,95049.9
2019-03-13T05:09:06.807Z,95057.8
2019-03-13T05:10:09.298Z,95055
2019-03-13T05:11:11.727Z,95060.7
2019-03-13T05:12:13.992Z,95062
2019-03-13T05:13:16.155Z,95055
2019-03-13T05:14:18.317Z,95063.5
2019-03-13T05:15:20.747Z,95069.3
2019-03-13T05:16:22.922Z,95066.6
2019-03-13T05:17:25.081Z,95071
2019-03-13T05:18:26.948Z,95077.4
2019-03-13T05:19:29.374Z,95074.6
2019-03-13T05:20:31.535Z,95079.8
2019-03-13T05:21:33.706Z,95077.2
2019-03-13T05:22:36.125Z,95086.5
2019-03-13T05:23:38.552Z,95089.4
2019-03-13T05:24:40.989Z,95094.9
2019-03-13T05:25:43.396Z,95091.6
2019-03-13T05:26:45.576Z,95096.2
2019-03-13T05:27:47.995Z,95093.5
2019-03-13T05:28:50.431Z,95101.7
2019-03-13T05:29:52.874Z,95101.7
2019-03-13T05:30:54.997Z,95102.7
2019-03-13T05:31:56.899Z,95104.5
2019-03-13T05:32:59.047Z,95104.1
2019-03-13T05:34:01.466Z,95109.1
2019-03-13T05:35:03.903Z,95105.2
2019-03-13T05:36:06.323Z,95111.6
2019-03-13T05:37:08.491Z,95115.9
2019-03-13T05:38:10.961Z,95114.9
2019-03-13T05:39:13.375Z,95112.9
2019-03-13T05:40:15.559Z,95119.7
2019-03-13T05:41:17.705Z,95118.8
2019-03-13T05:42:20.137Z,95117.2
2019-03-13T05:43:22.031Z,95126.7
2019-03-13T05:44:24.173Z,95125.7
2019-03-13T05:45:26.617Z,95128.7
2019-03-13T05:46:29.032Z,95132.5
2019-03-13T05:47:31.196Z,95130.5
2019-03-13T05:48:33.625Z,95137.9
2019-03-13T05:49:36.062Z,95137.3
2019-03-13T05:50:38.473Z,95135.5
2019-03-13T05:51:40.627Z,95144.6
2019-03-13T05:52:42.770Z,95148.8
2019-03-13T05:53:45.222Z,95150.1
2019-03-13T05:54:47.392Z,95148.5
2019-03-13T05:55:49.542Z,95155
2019-03-13T05:56:51.690Z,95148.1
2019-03-13T05:57:54.208Z,95149.9
2019-03-13T05:58:56.649Z,95151
2019-03-13T05:59:59.082Z,95150.3
2019-03-13T06:01:01.510Z,95152.7
2019-03-13T06:02:04.016Z,95150.4
2019-03-13T06:03:06.452Z,95151.1
2019-03-13T06:04:08.604Z,95154
2019-03-13T06:05:11.032Z,95152.8
2019-03-13T06:06:13.456Z,95158.6
2019-03-13T06:07:15.889Z,95162.8
2019-03-13T06:08:20.079Z,95162.3
2019-03-13T06:09:21.958Z,95162.1
2019-03-13T06:10:28.660Z,95162.9
2019-03-13T06:11:30.787Z,95167
2019-03-13T06:12:33.210Z,95168.5
2019-03-13T06:13:35.372Z,95168.9
2019-03-13T06:14:37.530Z,95172.7
2019-03-13T06:15:39.961Z,95171.4
2019-03-13T06:16:42.128Z,95168
2019-03-13T06:17:44.558Z,95163.6
2019-03-13T06:18:46.979Z,95166.3
2019-03-13T06:19:49.408Z,95175.1
2019-03-13T06:20:51.550Z,95180.1
2019-03-13T06:21:54.059Z,95175.6
2019-03-13T06:22:56.495Z,95173.7
2019-03-13T06:23:58.920Z,95176.6
2019-03-13T06:25:01.416Z,95174.6
2019-03-13T06:26:03.607Z,95181.3
2019-03-13T06:27:06.036Z,95182.9
2019-03-13T06:28:08.197Z,95177.9
2019-03-13T06:29:10.625Z,95172.7
2019-03-13T06:30:13.120Z,95182.1
2019-03-13T06:31:15.553Z,95181.6
2019-03-13T06:32:17.718Z,95175.7
2019-03-13T06:33:20.148Z,95178.8
2019-03-13T06:34:22.010Z,95179.3
2019-03-13T06:35:25.393Z,95182
2019-03-13T06:36:27.567Z,95183.5
2019-03-13T06:37:29.990Z,95187.4
2019-03-13T06:38:32.195Z,95185
2019-03-13T06:39:34.670Z,95192.4
2019-03-13T06:40:37.167Z,95186.5
2019-03-13T06:41:39.595Z,95190.1
2019-03-13T06:42:41.742Z,95189.9
2019-03-13T06:43:43.912Z,95196.1
2019-03-13T06:44:46.036Z,95196.1
2019-03-13T06:45:48.460Z,95197.3
2019-03-13T06:46:50.896Z,95195.7
2019-03-13T06:47:52.799Z,95200
2019-03-13T06:48:55.228Z,95200.8
2019-03-13T06:49:57.668Z,95198.7
2019-03-13T06:50:59.289Z,95199.1
2019-03-13T06:52:01.728Z,95197.5
2019-03-13T06:53:03.906Z,95200.7
2019-03-13T06:54:05.778Z,95199
2019-03-13T06:55:07.944Z,95203.9
2019-03-13T06:56:10.441Z,95201.6
2019-03-13T06:57:12.637Z,95204.7
2019-03-13T06:58:14.794Z,95200.5
2019-03-13T06:59:17.242Z,95202.6
2019-03-13T07:00:19.712Z,95199.8
2019-03-13T07:01:21.662Z,95203.8
2019-03-13T07:02:23.514Z,95209.3
2019-03-13T07:03:25.943Z,95206.3
2019-03-13T07:04:28.090Z,95210.5
2019-03-13T07:05:30.508Z,95210.9
2019-03-13T07:06:32.945Z,95211.8
2019-03-13T07:07:34.822Z,95208.3
2019-03-13T07:08:36.987Z,95206.6
2019-03-13T07:09:41.039Z,95211.6
2019-03-13T07:10:42.914Z,95202.4
2019-03-13T07:11:44.495Z,95206.2
2019-03-13T07:12:46.912Z,95210.2
2019-03-13T07:13:49.329Z,95204.2
2019-03-13T07:14:51.754Z,95199
2019-03-13T07:15:54.179Z,95196.1
2019-03-13T07:16:56.345Z,95195.7
2019-03-13T07:17:58.776Z,95195.7
2019-03-13T07:19:00.947Z,95190.7
2019-03-13T07:20:03.372Z,95198.3
2019-03-13T07:21:05.583Z,95192.3
2019-03-13T07:22:08.030Z,95189.5
2019-03-13T07:23:10.179Z,95189.3
2019-03-13T07:24:12.326Z,95190.2
2019-03-13T07:25:14.753Z,95191
2019-03-13T07:26:16.651Z,95188.8
2019-03-13T07:27:18.822Z,95189.8
2019-03-13T07:28:21.252Z,95189.1
2019-03-13T07:29:23.680Z,95191.4
2019-03-13T07:30:26.111Z,95193.1
2019-03-13T07:31:28.540Z,95185.8
2019-03-13T07:32:30.716Z,95184.5
2019-03-13T07:33:32.870Z,95187.5
2019-03-13T07:34:35.303Z,95185.2
2019-03-13T07:35:37.454Z,95185.9
2019-03-13T07:36:39.598Z,95188.8
2019-03-13T07:37:41.469Z,95193.9
2019-03-13T07:38:43.888Z,95194.6
2019-03-13T07:39:46.342Z,95191.4
2019-03-13T07:40:48.768Z,95190.7
2019-03-13T07:41:51.204Z,95186.1
2019-03-13T07:42:53.380Z,95193
2019-03-13T07:43:55.816Z,95188.8
2019-03-13T07:44:58.258Z,95192.6
2019-03-13T07:46:00.676Z,95186.9
2019-03-13T07:47:03.089Z,95181.1
2019-03-13T07:48:05.260Z,95184.7
2019-03-13T07:49:07.162Z,95186.1
2019-03-13T07:50:09.321Z,95180.8
2019-03-13T07:51:11.748Z,95178.8
2019-03-13T07:52:14.371Z,95181.1
2019-03-13T07:53:16.801Z,95177.1
2019-03-13T07:54:18.956Z,95178.3
2019-03-13T07:55:20.850Z,95171.8
2019-03-13T07:56:23.280Z,95173.5
2019-03-13T07:57:25.740Z,95181.4
2019-03-13T07:58:28.166Z,95168.4
2019-03-13T07:59:30.594Z,95176.4
2019-03-13T08:00:33.012Z,95180.3
2019-03-13T08:01:34.922Z,95177.4
2019-03-13T08:02:37.349Z,95181.4
2019-03-13T08:03:39.548Z,95180.4
2019-03-13T08:04:41.686Z,95181.8
2019-03-13T08:05:43.833Z,95182.1
2019-03-13T08:06:45.987Z,95179.7
2019-03-13T08:07:48.411Z,95177.3
2019-03-13T08:08:50.285Z,95181.6
2019-03-13T08:09:52.714Z,95183.9
2019-03-13T08:10:54.877Z,95177.9
2019-03-13T08:11:56.757Z,95187.3
2019-03-13T08:12:59.185Z,95173.8
2019-03-13T08:14:01.335Z,95171.4
2019-03-13T08:15:03.769Z,95170.8
2019-03-13T08:16:05.652Z,95176.7
2019-03-13T08:17:08.068Z,95176.9
2019-03-13T08:18:10.507Z,95171.8
2019-03-13T08:19:12.927Z,95175.4
2019-03-13T08:20:14.823Z,95180.6
2019-03-13T08:21:17.255Z,95178.2
2019-03-13T08:22:19.680Z,95178.5
2019-03-13T08:23:22.113Z,95171.2
2019-03-13T08:24:24.569Z,95173.7
2019-03-13T08:25:26.993Z,95169.5
2019-03-13T08:26:29.422Z,95174.2
2019-03-13T08:27:31.857Z,95176.7
2019-03-13T08:28:34.029Z,95174.8
2019-03-13T08:29:36.467Z,95174.9
2019-03-13T08:30:38.625Z,95175.7
2019-03-13T08:31:41.048Z,95180
2019-03-13T08:32:43.210Z,95179.1
2019-03-13T08:33:45.647Z,95181.7
2019-03-13T08:34:47.797Z,95181.9
2019-03-13T08:35:50.232Z,95180.6
2019-03-13T08:36:52.355Z,95172
2019-03-13T08:37:54.776Z,95185
2019-03-13T08:38:57.196Z,95178.5
2019-03-13T08:39:59.621Z,95173.5
2019-03-13T08:41:02.356Z,95181.4
2019-03-13T08:42:04.781Z,95171.3
2019-03-13T08:43:07.219Z,95177.2
2019-03-13T08:44:09.087Z,95181.7
2019-03-13T08:45:11.245Z,95172.2
2019-03-13T08:46:13.410Z,95167.1
2019-03-13T08:47:15.850Z,95167.4
2019-03-13T08:48:18.279Z,95167.9
2019-03-13T08:49:20.440Z,95160
2019-03-13T08:50:22.870Z,95170.9
2019-03-13T08:51:25.009Z,95163.1
2019-03-13T08:52:27.172Z,95165.6
2019-03-13T08:53:29.330Z,95163.5
2019-03-13T08:54:31.762Z,95158.5
2019-03-13T08:55:33.912Z,95168.5
2019-03-13T08:56:36.058Z,95161.3
2019-03-13T08:57:38.491Z,95166
2019-03-13T08:58:40.939Z,95166.7
2019-03-13T08:59:43.367Z,95160.3
2019-03-13T09:00:45.537Z,95165
2019-03-13T09:01:47.697Z,95166.1
2019-03-13T09:02:50.136Z,95169.9
2019-03-13T09:03:52.584Z,95161.9
2019-03-13T09:04:54.757Z,95157.2
2019-03-13T09:05:56.644Z,95150.8
2019-03-13T09:06:59.078Z,95165.8
2019-03-13T09:08:01.509Z,95156.9
2019-03-13T09:09:03.636Z,95165.7
2019-03-13T09:10:06.057Z,95165.7
2019-03-13T09:11:08.492Z,95152.7
2019-03-13T09:12:10.631Z,95165.7
2019-03-13T09:13:12.768Z,95164
2019-03-13T09:14:15.200Z,95152.4
2019-03-13T09:15:17.641Z,95153.1
2019-03-13T09:16:21.357Z,95149.8
2019-03-13T09:17:23.794Z,95146
2019-03-13T09:18:26.282Z,95139.2
2019-03-13T09:19:28.473Z,95143.4
2019-03-13T09:20:30.622Z,95141.9
2019-03-13T09:21:35.096Z,95144.2
2019-03-13T09:22:37.532Z,95138.1
2019-03-13T09:23:39.439Z,95138.8
2019-03-13T09:24:41.898Z,95137.5
2019-03-13T09:25:44.331Z,95132.7
2019-03-13T09:26:46.760Z,95140
2019-03-13T09:27:49.188Z,95139
2019-03-13T09:28:51.620Z,95133.6
2019-03-13T09:29:53.785Z,95128.4
2019-03-13T09:30:56.213Z,95130.1
2019-03-13T09:31:58.630Z,95138.1
2019-03-13T09:33:00.803Z,95128.7
2019-03-13T09:34:02.962Z,95140.8
2019-03-13T09:35:05.485Z,95141.3
2019-03-13T09:36:07.635Z,95117.2
2019-03-13T09:37:09.779Z,95117.2
2019-03-13T09:38:11.407Z,95125.3
2019-03-13T09:39:13.257Z,95139.4
2019-03-13T09:40:15.762Z,95143.3
2019-03-13T09:41:17.987Z,95132.8
2019-03-13T09:42:20.418Z,95122.7
2019-03-13T09:43:22.837Z,95126.5
2019-03-13T09:44:25.280Z,95128.7
2019-03-13T09:45:27.713Z,95132.4
2019-03-13T09:46:30.162Z,95136.3
2019-03-13T09:47:32.592Z,95140.4
2019-03-13T09:48:34.755Z,95136.5
2019-03-13T09:49:37.202Z,95143.9
2019-03-13T09:50:39.641Z,95129.7
2019-03-13T09:51:41.788Z,95133.1
2019-03-13T09:52:43.939Z,95132.8
2019-03-13T09:53:46.372Z,95128.8
2019-03-13T09:54:48.508Z,95139.2
2019-03-13T09:55:50.399Z,95131.5
2019-03-13T09:56:52.535Z,95129.2
2019-03-13T09:57:54.969Z,95127.1
2019-03-13T09:58:57.407Z,95128.8
2019-03-13T09:59:59.839Z,95121.8
2019-03-13T10:01:02.413Z,95122.7
2019-03-13T10:02:04.289Z,95120
2019-03-13T10:03:06.182Z,95118
2019-03-13T10:04:07.780Z,95125
2019-03-13T10:05:10.215Z,95117
2019-03-13T10:06:12.378Z,95112
2019-03-13T10:07:14.538Z,95119.3
2019-03-13T10:08:16.705Z,95105.6
2019-03-13T10:09:19.140Z,95111.3
2019-03-13T10:10:21.567Z,95114.9
2019-03-13T10:11:23.998Z,95116.3
2019-03-13T10:12:26.432Z,95119.6
2019-03-13T10:13:28.582Z,95117.3
2019-03-13T10:14:31.011Z,95121.3
2019-03-13T10:15:33.137Z,95113.3
2019-03-13T10:16:35.296Z,95115.4
2019-03-13T10:17:37.196Z,95117
2019-03-13T10:18:39.353Z,95115.7
2019-03-13T10:20:46.783Z,95122.2
2019-03-13T10:21:48.928Z,95121
2019-03-13T10:22:51.356Z,95118.8
2019-03-13T10:23:53.507Z,95127.8
2019-03-13T10:24:55.640Z,95125.3
2019-03-13T10:25:58.069Z,95119.8
2019-03-13T10:27:00.513Z,95108.4
2019-03-13T10:28:02.645Z,95124.5
2019-03-13T10:29:05.080Z,95123.9
2019-03-13T10:30:07.521Z,95132.3
2019-03-13T10:31:09.949Z,95133
2019-03-13T10:32:12.110Z,95129.5
2019-03-13T10:33:14.538Z,95115.4
2019-03-13T10:34:16.420Z,95114.3
2019-03-13T10:35:18.851Z,95115.2
2019-03-13T10:36:21.016Z,95116.2
2019-03-13T10:37:23.451Z,95110.8
2019-03-13T10:38:25.885Z,95101.3
2019-03-13T10:39:27.776Z,95110.5
2019-03-13T10:40:29.947Z,95102.1
2019-03-13T10:41:32.399Z,95102.2
2019-03-13T10:42:34.909Z,95103.8
2019-03-13T10:43:37.340Z,95097.6
2019-03-13T10:44:38.956Z,95094
2019-03-13T10:45:41.105Z,95098.3
2019-03-13T10:46:43.541Z,95092.1
2019-03-13T10:47:45.959Z,95087.3
2019-03-13T10:48:48.384Z,95097.7
2019-03-13T10:49:50.810Z,95091.2
2019-03-13T10:50:52.699Z,95094.3
2019-03-13T10:51:54.590Z,95094.6
2019-03-13T10:52:57.015Z,95088
2019-03-13T10:53:59.180Z,95083
2019-03-13T10:55:01.326Z,95082.1
2019-03-13T10:56:03.198Z,95079.6
2019-03-13T10:57:05.624Z,95083.7
2019-03-13T10:58:08.061Z,95079.2
2019-03-13T10:59:10.497Z,95069.5
2019-03-13T11:00:12.918Z,95076.2
2019-03-13T11:01:15.077Z,95079.3
2019-03-13T11:02:17.512Z,95072
2019-03-13T11:03:19.936Z,95068.1
2019-03-13T11:04:22.379Z,95070
2019-03-13T11:05:24.808Z,95066.4
2019-03-13T11:06:27.227Z,95064.2
2019-03-13T11:07:30.139Z,95073.3
2019-03-13T11:08:32.293Z,95069.1
2019-03-13T11:09:34.796Z,95074.5
2019-03-13T11:10:36.938Z,95081.8
2019-03-13T11:11:39.379Z,95078.8
2019-03-13T11:12:41.535Z,95082.6
2019-03-13T11:13:43.961Z,95068.7
2019-03-13T11:14:46.383Z,95080.1
2019-03-13T11:15:48.534Z,95068.9
2019-03-13T11:16:50.695Z,95075.7
2019-03-13T11:17:53.127Z,95072.7
2019-03-13T11:18:55.579Z,95070
2019-03-13T11:19:57.732Z,95075.5
2019-03-13T11:21:00.162Z,95101.9
2019-03-13T11:22:02.595Z,95138.7
2019-03-13T11:23:04.750Z,95147.6
2019-03-13T11:24:07.191Z,95148.1
2019-03-13T11:25:09.599Z,95153.6
2019-03-13T11:26:12.027Z,95153.8
2019-03-13T11:27:14.447Z,95143.5
2019-03-13T11:28:16.315Z,95158
2019-03-13T11:29:18.466Z,95150.7
2019-03-13T11:30:22.311Z,95142.4
2019-03-13T11:31:24.255Z,95138.8
2019-03-13T11:32:26.717Z,95140.1
2019-03-13T11:33:29.148Z,95131.9
2019-03-13T11:34:31.330Z,95125.3
2019-03-13T11:35:33.756Z,95120.9
2019-03-13T11:36:36.695Z,95110.5
2019-03-13T11:37:38.839Z,95105.2
2019-03-13T11:38:40.703Z,95106.6
2019-03-13T11:39:43.220Z,95096.9
2019-03-13T11:40:45.646Z,95094.7
2019-03-13T11:41:48.070Z,95093
2019-03-13T11:42:50.501Z,95085.2
2019-03-13T11:43:52.927Z,95087.4
2019-03-13T11:44:55.351Z,95081.9
2019-03-13T11:45:57.501Z,95082.1
2019-03-13T11:46:59.649Z,95074
2019-03-13T11:48:02.089Z,95072.8
2019-03-13T11:49:04.527Z,95073.4
2019-03-13T11:50:06.145Z,95068.3
2019-03-13T11:51:08.589Z,95061.9
2019-03-13T11:52:10.720Z,95066.3
2019-03-13T11:53:13.182Z,95054
2019-03-13T11:54:15.315Z,95053.3
2019-03-13T11:55:17.494Z,95054.2
2019-03-13T11:56:19.916Z,95050
2019-03-13T11:57:22.372Z,95058.3
2019-03-13T11:58:24.787Z,95048.1
2019-03-13T11:59:27.217Z,95056.5
2019-03-13T12:00:29.647Z,95056.4
2019-03-13T12:01:31.795Z,95044.4
2019-03-13T12:02:38.434Z,95038.2
2019-03-13T12:03:40.866Z,95036
2019-03-13T12:04:43.283Z,95033.9
2019-03-13T12:05:45.748Z,95030.2
2019-03-13T12:06:47.905Z,95027.9
2019-03-13T12:07:50.048Z,95025.7
2019-03-13T12:08:51.923Z,95031.6
2019-03-13T12:09:54.353Z,95022.2
2019-03-13T12:10:56.498Z,95021.5
2019-03-13T12:11:58.393Z,95015.3
2019-03-13T12:13:00.817Z,95012.1
2019-03-13T12:14:02.973Z,95015.2
2019-03-13T12:15:05.407Z,95006.9
2019-03-13T12:16:07.585Z,95006.1
2019-03-13T12:17:10.014Z,94996.1
2019-03-13T12:18:12.461Z,95001.6
2019-03-13T12:19:14.893Z,95003.4
2019-03-13T12:20:17.322Z,95004.5
2019-03-13T12:21:19.749Z,95002.6
2019-03-13T12:22:22.264Z,95017.9
2019-03-13T12:23:24.141Z,94989
2019-03-13T12:24:26.290Z,94996.8
2019-03-13T12:25:28.516Z,95010
2019-03-13T12:26:30.966Z,95006.8
2019-03-13T12:27:33.155Z,95018.4
2019-03-13T12:28:35.572Z,95002.2
2019-03-13T12:29:37.701Z,94998.7
2019-03-13T12:30:39.856Z,94998.8
2019-03-13T12:31:41.989Z,95003.5
2019-03-13T12:32:44.417Z,94995.6
2019-03-13T12:33:46.578Z,94994.7
2019-03-13T12:34:49.000Z,95002.3
2019-03-13T12:35:51.418Z,94990.2
2019-03-13T12:36:53.284Z,94999
2019-03-13T12:37:55.715Z,95002.5
2019-03-13T12:38:57.885Z,94990.4
2019-03-13T12:40:00.022Z,95001
2019-03-13T12:41:02.505Z,94998.2